sensor_id;sensor_type;location;lat;lon;timestamp;pressure;altitude;pressure_sealevel;temperature;humidity
46464;BME280;32161;48.148;-1.554;2023-03-03T00:01:51;101681.13;;;4.61;88.28
46464;BME280;32161;48.148;-1.554;2023-03-03T00:04:18;101681.59;;;4.49;88.39
46464;BME280;32161;48.148;-1.554;2023-03-03T00:06:47;101681.28;;;4.60;88.18
46464;BME280;32161;48.148;-1.554;2023-03-03T00:09:15;101690.19;;;4.52;88.18
46464;BME280;32161;48.148;-1.554;2023-03-03T00:11:42;101682.81;;;4.54;87.41
46464;BME280;32161;48.148;-1.554;2023-03-03T00:14:21;101682.28;;;4.51;87.95
46464;BME280;32161;48.148;-1.554;2023-03-03T00:16:49;101674.69;;;4.38;88.16
46464;BME280;32161;48.148;-1.554;2023-03-03T00:19:18;101678.59;;;4.44;88.67
46464;BME280;32161;48.148;-1.554;2023-03-03T00:21:50;101678.41;;;4.37;89.23
46464;BME280;32161;48.148;-1.554;2023-03-03T00:24:21;101675.72;;;4.45;88.72
46464;BME280;32161;48.148;-1.554;2023-03-03T00:26:50;101673.84;;;4.37;88.49
46464;BME280;32161;48.148;-1.554;2023-03-03T00:29:28;101673.84;;;4.37;88.98
46464;BME280;32161;48.148;-1.554;2023-03-03T00:32:20;101679.03;;;4.23;88.96
46464;BME280;32161;48.148;-1.554;2023-03-03T00:34:50;101673.19;;;4.27;89.37
46464;BME280;32161;48.148;-1.554;2023-03-03T00:37:32;101676.22;;;4.32;88.90
46464;BME280;32161;48.148;-1.554;2023-03-03T00:40:22;101668.47;;;4.29;89.38
46464;BME280;32161;48.148;-1.554;2023-03-03T00:42:52;101672.00;;;4.30;89.05
46464;BME280;32161;48.148;-1.554;2023-03-03T00:45:31;101670.00;;;4.32;89.16
46464;BME280;32161;48.148;-1.554;2023-03-03T00:48:21;101663.94;;;4.38;89.21
46464;BME280;32161;48.148;-1.554;2023-03-03T00:50:50;101678.25;;;4.38;88.69
46464;BME280;32161;48.148;-1.554;2023-03-03T00:53:21;101672.34;;;4.35;89.23
46464;BME280;32161;48.148;-1.554;2023-03-03T00:55:51;101675.38;;;4.32;88.88
46464;BME280;32161;48.148;-1.554;2023-03-03T00:58:20;101674.53;;;4.31;89.32
46464;BME280;32161;48.148;-1.554;2023-03-03T01:00:50;101666.28;;;4.33;89.14
46464;BME280;32161;48.148;-1.554;2023-03-03T01:03:21;101672.00;;;4.30;89.03
46464;BME280;32161;48.148;-1.554;2023-03-03T01:05:50;101675.69;;;4.29;88.98
46464;BME280;32161;48.148;-1.554;2023-03-03T01:08:20;101672.69;;;4.24;89.32
46464;BME280;32161;48.148;-1.554;2023-03-03T01:10:50;101668.47;;;4.21;89.80
46464;BME280;32161;48.148;-1.554;2023-03-03T01:13:20;101668.66;;;4.28;89.79
46464;BME280;32161;48.148;-1.554;2023-03-03T01:15:50;101665.97;;;4.28;89.73
46464;BME280;32161;48.148;-1.554;2023-03-03T01:18:18;101670.84;;;4.32;89.01
46464;BME280;32161;48.148;-1.554;2023-03-03T01:20:46;101663.41;;;4.26;89.40
46464;BME280;32161;48.148;-1.554;2023-03-03T01:23:13;101662.56;;;4.26;89.31
46464;BME280;32161;48.148;-1.554;2023-03-03T01:25:42;101655.34;;;4.26;89.19
46464;BME280;32161;48.148;-1.554;2023-03-03T01:28:10;101652.50;;;4.28;89.84
46464;BME280;32161;48.148;-1.554;2023-03-03T01:30:38;101658.22;;;4.25;89.99
46464;BME280;32161;48.148;-1.554;2023-03-03T01:33:05;101657.88;;;4.28;90.21
46464;BME280;32161;48.148;-1.554;2023-03-03T01:35:33;101665.13;;;4.27;89.68
46464;BME280;32161;48.148;-1.554;2023-03-03T01:38:02;101651.16;;;4.24;89.77
46464;BME280;32161;48.148;-1.554;2023-03-03T01:40:30;101649.13;;;4.26;89.72
46464;BME280;32161;48.148;-1.554;2023-03-03T01:43:00;101649.94;;;4.26;89.28
46464;BME280;32161;48.148;-1.554;2023-03-03T01:45:29;101653.66;;;4.25;89.37
46464;BME280;32161;48.148;-1.554;2023-03-03T01:48:03;101653.16;;;4.22;89.34
46464;BME280;32161;48.148;-1.554;2023-03-03T01:50:40;101652.31;;;4.21;89.42
46464;BME280;32161;48.148;-1.554;2023-03-03T01:53:17;101652.63;;;4.18;89.50
46464;BME280;32161;48.148;-1.554;2023-03-03T01:55:46;101651.81;;;4.18;89.53
46464;BME280;32161;48.148;-1.554;2023-03-03T01:58:20;101649.81;;;4.20;89.88
46464;BME280;32161;48.148;-1.554;2023-03-03T02:00:52;101646.75;;;4.14;89.87
46464;BME280;32161;48.148;-1.554;2023-03-03T02:03:23;101647.75;;;4.13;89.90
46464;BME280;32161;48.148;-1.554;2023-03-03T02:05:53;101652.47;;;4.11;89.66
46464;BME280;32161;48.148;-1.554;2023-03-03T02:08:27;101651.63;;;4.11;89.39
46464;BME280;32161;48.148;-1.554;2023-03-03T02:10:57;101649.09;;;4.09;88.93
46464;BME280;32161;48.148;-1.554;2023-03-03T02:13:26;101650.13;;;4.08;89.13
46464;BME280;32161;48.148;-1.554;2023-03-03T02:15:54;101653.13;;;4.05;89.27
46464;BME280;32161;48.148;-1.554;2023-03-03T02:18:23;101648.78;;;4.04;89.17
46464;BME280;32161;48.148;-1.554;2023-03-03T02:20:56;101644.03;;;4.06;88.97
46464;BME280;32161;48.148;-1.554;2023-03-03T02:23:31;101644.03;;;4.06;89.58
46464;BME280;32161;48.148;-1.554;2023-03-03T02:26:09;101648.91;;;4.03;89.60
46464;BME280;32161;48.148;-1.554;2023-03-03T02:28:39;101643.84;;;4.00;89.36
46464;BME280;32161;48.148;-1.554;2023-03-03T02:31:10;101641.84;;;4.02;89.73
46464;BME280;32161;48.148;-1.554;2023-03-03T02:33:39;101642.69;;;4.02;90.24
46464;BME280;32161;48.148;-1.554;2023-03-03T02:36:12;101637.63;;;3.99;90.35
46464;BME280;32161;48.148;-1.554;2023-03-03T02:38:47;101640.31;;;3.99;90.49
46464;BME280;32161;48.148;-1.554;2023-03-03T02:41:28;101637.63;;;3.99;90.89
46464;BME280;32161;48.148;-1.554;2023-03-03T02:44:00;101629.75;;;3.98;91.21
46464;BME280;32161;48.148;-1.554;2023-03-03T02:46:35;101624.88;;;4.01;90.79
46464;BME280;32161;48.148;-1.554;2023-03-03T02:49:05;101629.25;;;4.02;90.55
46464;BME280;32161;48.148;-1.554;2023-03-03T02:51:34;101632.94;;;4.01;90.34
46464;BME280;32161;48.148;-1.554;2023-03-03T02:54:03;101627.56;;;4.01;90.64
46464;BME280;32161;48.148;-1.554;2023-03-03T02:56:32;101628.59;;;4.00;89.79
46464;BME280;32161;48.148;-1.554;2023-03-03T02:59:00;101634.94;;;3.99;89.54
46464;BME280;32161;48.148;-1.554;2023-03-03T03:01:28;101630.41;;;4.00;89.21
46464;BME280;32161;48.148;-1.554;2023-03-03T03:03:57;101624.19;;;3.99;88.91
46464;BME280;32161;48.148;-1.554;2023-03-03T03:06:25;101622.34;;;4.00;88.55
46464;BME280;32161;48.148;-1.554;2023-03-03T03:08:52;101624.53;;;3.96;88.28
46464;BME280;32161;48.148;-1.554;2023-03-03T03:11:20;101632.09;;;3.92;88.08
46464;BME280;32161;48.148;-1.554;2023-03-03T03:13:49;101624.19;;;3.91;88.12
46464;BME280;32161;48.148;-1.554;2023-03-03T03:16:17;101628.06;;;3.88;87.64
46464;BME280;32161;48.148;-1.554;2023-03-03T03:18:44;101633.91;;;3.84;87.58
46464;BME280;32161;48.148;-1.554;2023-03-03T03:21:12;101634.41;;;3.79;87.10
46464;BME280;32161;48.148;-1.554;2023-03-03T03:23:40;101633.38;;;3.80;87.29
46464;BME280;32161;48.148;-1.554;2023-03-03T03:26:08;101629.19;;;3.78;87.65
46464;BME280;32161;48.148;-1.554;2023-03-03T03:28:36;101629.03;;;3.79;88.00
46464;BME280;32161;48.148;-1.554;2023-03-03T03:31:07;101633.88;;;3.76;87.90
46464;BME280;32161;48.148;-1.554;2023-03-03T03:33:35;101629.84;;;3.72;87.54
46464;BME280;32161;48.148;-1.554;2023-03-03T03:36:04;101632.00;;;3.68;88.15
46464;BME280;32161;48.148;-1.554;2023-03-03T03:38:33;101633.88;;;3.67;87.38
46464;BME280;32161;48.148;-1.554;2023-03-03T03:41:02;101634.88;;;3.66;88.30
46464;BME280;32161;48.148;-1.554;2023-03-03T03:43:30;101635.72;;;3.67;87.97
46464;BME280;32161;48.148;-1.554;2023-03-03T03:45:58;101637.56;;;3.66;89.20
46464;BME280;32161;48.148;-1.554;2023-03-03T03:48:27;101639.56;;;3.64;89.15
46464;BME280;32161;48.148;-1.554;2023-03-03T03:50:55;101632.50;;;3.63;89.44
46464;BME280;32161;48.148;-1.554;2023-03-03T03:53:22;101645.28;;;3.61;89.89
46464;BME280;32161;48.148;-1.554;2023-03-03T03:55:50;101639.41;;;3.58;89.32
46464;BME280;32161;48.148;-1.554;2023-03-03T03:58:18;101643.59;;;3.60;89.94
46464;BME280;32161;48.148;-1.554;2023-03-03T04:00:46;101645.44;;;3.60;89.64
46464;BME280;32161;48.148;-1.554;2023-03-03T04:03:14;101644.41;;;3.61;89.25
46464;BME280;32161;48.148;-1.554;2023-03-03T04:05:43;101644.28;;;3.62;89.91
46464;BME280;32161;48.148;-1.554;2023-03-03T04:08:11;101658.56;;;3.63;90.20
46464;BME280;32161;48.148;-1.554;2023-03-03T04:10:39;101650.97;;;3.58;89.62
46464;BME280;32161;48.148;-1.554;2023-03-03T04:13:06;101648.97;;;3.60;90.50
46464;BME280;32161;48.148;-1.554;2023-03-03T04:15:34;101660.38;;;3.54;90.13
46464;BME280;32161;48.148;-1.554;2023-03-03T04:18:02;101660.22;;;3.56;89.44
46464;BME280;32161;48.148;-1.554;2023-03-03T04:20:30;101654.16;;;3.54;89.03
46464;BME280;32161;48.148;-1.554;2023-03-03T04:22:59;101652.13;;;3.56;89.11
46464;BME280;32161;48.148;-1.554;2023-03-03T04:25:27;101657.03;;;3.60;88.82
46464;BME280;32161;48.148;-1.554;2023-03-03T04:27:54;101660.22;;;3.56;89.36
46464;BME280;32161;48.148;-1.554;2023-03-03T04:30:22;101650.47;;;3.55;90.12
46464;BME280;32161;48.148;-1.554;2023-03-03T04:32:49;101653.66;;;3.58;90.13
46464;BME280;32161;48.148;-1.554;2023-03-03T04:35:18;101657.00;;;3.52;90.50
46464;BME280;32161;48.148;-1.554;2023-03-03T04:37:46;101658.16;;;3.50;90.54
46464;BME280;32161;48.148;-1.554;2023-03-03T04:40:15;101653.66;;;3.50;90.92
46464;BME280;32161;48.148;-1.554;2023-03-03T04:42:43;101652.94;;;3.48;91.01
46464;BME280;32161;48.148;-1.554;2023-03-03T04:45:11;101656.47;;;3.49;90.27
46464;BME280;32161;48.148;-1.554;2023-03-03T04:47:39;101664.00;;;3.45;89.48
46464;BME280;32161;48.148;-1.554;2023-03-03T04:50:09;101666.69;;;3.45;90.07
46464;BME280;32161;48.148;-1.554;2023-03-03T04:52:37;101659.81;;;3.42;90.02
46464;BME280;32161;48.148;-1.554;2023-03-03T04:55:07;101663.50;;;3.41;90.61
46464;BME280;32161;48.148;-1.554;2023-03-03T04:57:37;101655.94;;;3.45;89.95
46464;BME280;32161;48.148;-1.554;2023-03-03T05:00:06;101661.31;;;3.45;90.29
46464;BME280;32161;48.148;-1.554;2023-03-03T05:02:34;101661.63;;;3.42;90.44
46464;BME280;32161;48.148;-1.554;2023-03-03T05:05:02;101666.19;;;3.41;89.92
46464;BME280;32161;48.148;-1.554;2023-03-03T05:07:29;101655.59;;;3.40;90.01
46464;BME280;32161;48.148;-1.554;2023-03-03T05:09:57;101659.97;;;3.41;90.23
46464;BME280;32161;48.148;-1.554;2023-03-03T05:12:24;101654.59;;;3.41;90.93
46464;BME280;32161;48.148;-1.554;2023-03-03T05:14:53;101649.22;;;3.41;90.99
46464;BME280;32161;48.148;-1.554;2023-03-03T05:17:21;101652.03;;;3.31;90.79
46464;BME280;32161;48.148;-1.554;2023-03-03T05:19:48;101658.75;;;3.27;91.25
46464;BME280;32161;48.148;-1.554;2023-03-03T05:22:16;101654.22;;;3.28;90.86
46464;BME280;32161;48.148;-1.554;2023-03-03T05:24:44;101654.22;;;3.28;90.59
46464;BME280;32161;48.148;-1.554;2023-03-03T05:27:14;101653.50;;;3.26;90.75
46464;BME280;32161;48.148;-1.554;2023-03-03T05:29:41;101649.16;;;3.25;90.31
46464;BME280;32161;48.148;-1.554;2023-03-03T05:32:10;101657.22;;;3.25;90.61
46464;BME280;32161;48.148;-1.554;2023-03-03T05:34:38;101658.41;;;3.30;91.33
46464;BME280;32161;48.148;-1.554;2023-03-03T05:37:06;101656.19;;;3.26;90.89
46464;BME280;32161;48.148;-1.554;2023-03-03T05:39:34;101663.19;;;3.18;90.99
46464;BME280;32161;48.148;-1.554;2023-03-03T05:42:02;101659.84;;;3.16;90.78
46464;BME280;32161;48.148;-1.554;2023-03-03T05:44:29;101655.81;;;3.12;91.13
46464;BME280;32161;48.148;-1.554;2023-03-03T05:46:57;101656.31;;;3.16;90.53
46464;BME280;32161;48.148;-1.554;2023-03-03T05:49:26;101660.38;;;3.20;90.70
46464;BME280;32161;48.148;-1.554;2023-03-03T05:51:53;101665.06;;;3.18;91.04
46464;BME280;32161;48.148;-1.554;2023-03-03T05:54:21;101660.34;;;3.12;91.08
46464;BME280;32161;48.148;-1.554;2023-03-03T05:56:49;101669.38;;;3.11;91.53
46464;BME280;32161;48.148;-1.554;2023-03-03T05:59:16;101659.63;;;3.10;92.27
46464;BME280;32161;48.148;-1.554;2023-03-03T06:01:44;101659.63;;;3.10;92.90
46464;BME280;32161;48.148;-1.554;2023-03-03T06:04:11;101659.81;;;3.08;92.73
46464;BME280;32161;48.148;-1.554;2023-03-03T06:06:40;101661.66;;;3.08;92.03
46464;BME280;32161;48.148;-1.554;2023-03-03T06:09:08;101666.84;;;3.09;92.08
46464;BME280;32161;48.148;-1.554;2023-03-03T06:11:35;101676.44;;;3.12;92.85
46464;BME280;32161;48.148;-1.554;2023-03-03T06:14:03;101673.06;;;3.10;93.23
46464;BME280;32161;48.148;-1.554;2023-03-03T06:16:31;101671.88;;;3.04;93.05
46464;BME280;32161;48.148;-1.554;2023-03-03T06:18:58;101680.59;;;3.06;92.68
46464;BME280;32161;48.148;-1.554;2023-03-03T06:21:26;101675.94;;;3.08;92.38
46464;BME280;32161;48.148;-1.554;2023-03-03T06:23:55;101682.97;;;3.09;92.67
46464;BME280;32161;48.148;-1.554;2023-03-03T06:26:22;101692.03;;;3.08;92.70
46464;BME280;32161;48.148;-1.554;2023-03-03T06:28:50;101682.13;;;3.09;92.39
46464;BME280;32161;48.148;-1.554;2023-03-03T06:31:20;101690.31;;;3.07;92.77
46464;BME280;32161;48.148;-1.554;2023-03-03T06:33:48;101693.72;;;3.09;93.08
46464;BME280;32161;48.148;-1.554;2023-03-03T06:36:17;101699.94;;;3.10;93.01
46464;BME280;32161;48.148;-1.554;2023-03-03T06:38:44;101702.78;;;3.08;93.11
46464;BME280;32161;48.148;-1.554;2023-03-03T06:41:13;101710.53;;;3.11;93.62
46464;BME280;32161;48.148;-1.554;2023-03-03T06:43:41;101710.00;;;3.08;92.70
46464;BME280;32161;48.148;-1.554;2023-03-03T06:46:09;101717.00;;;3.01;92.85
46464;BME280;32161;48.148;-1.554;2023-03-03T06:48:36;101718.50;;;3.03;92.63
46464;BME280;32161;48.148;-1.554;2023-03-03T06:51:21;101721.53;;;3.00;91.94
46464;BME280;32161;48.148;-1.554;2023-03-03T06:53:53;101722.56;;;3.07;92.39
46464;BME280;32161;48.148;-1.554;2023-03-03T06:56:23;101718.84;;;3.00;93.08
46464;BME280;32161;48.148;-1.554;2023-03-03T06:58:54;101730.78;;;3.06;92.75
46464;BME280;32161;48.148;-1.554;2023-03-03T07:01:22;101729.38;;;3.20;93.38
46464;BME280;32161;48.148;-1.554;2023-03-03T07:03:50;101735.94;;;2.99;93.26
46464;BME280;32161;48.148;-1.554;2023-03-03T07:06:22;101735.88;;;2.91;95.08
46464;BME280;32161;48.148;-1.554;2023-03-03T07:08:51;101734.25;;;2.98;94.61
46464;BME280;32161;48.148;-1.554;2023-03-03T07:11:22;101744.69;;;3.01;94.86
46464;BME280;32161;48.148;-1.554;2023-03-03T07:13:53;101745.44;;;3.11;94.78
46464;BME280;32161;48.148;-1.554;2023-03-03T07:16:26;101738.16;;;3.30;93.93
46464;BME280;32161;48.148;-1.554;2023-03-03T07:18:55;101747.00;;;3.22;93.59
46464;BME280;32161;48.148;-1.554;2023-03-03T07:21:30;101748.03;;;3.21;94.27
46464;BME280;32161;48.148;-1.554;2023-03-03T07:24:17;101747.84;;;3.23;94.08
46464;BME280;32161;48.148;-1.554;2023-03-03T07:26:50;101750.22;;;3.26;93.46
46464;BME280;32161;48.148;-1.554;2023-03-03T07:29:23;101748.78;;;3.31;93.58
46464;BME280;32161;48.148;-1.554;2023-03-03T07:31:53;101754.50;;;3.36;93.52
46464;BME280;32161;48.148;-1.554;2023-03-03T07:34:22;101760.28;;;3.50;93.76
46464;BME280;32161;48.148;-1.554;2023-03-03T07:36:54;101759.94;;;3.45;93.27
46464;BME280;32161;48.148;-1.554;2023-03-03T07:39:34;101764.28;;;3.46;93.31
46464;BME280;32161;48.148;-1.554;2023-03-03T07:42:21;101765.63;;;3.41;93.71
46464;BME280;32161;48.148;-1.554;2023-03-03T07:44:51;101773.22;;;3.46;93.17
46464;BME280;32161;48.148;-1.554;2023-03-03T07:47:23;101777.94;;;3.52;93.63
46464;BME280;32161;48.148;-1.554;2023-03-03T07:49:53;101774.13;;;3.55;93.25
46464;BME280;32161;48.148;-1.554;2023-03-03T07:52:28;101776.63;;;3.56;92.20
46464;BME280;32161;48.148;-1.554;2023-03-03T07:55:00;101779.72;;;3.61;92.20
46464;BME280;32161;48.148;-1.554;2023-03-03T07:57:35;101785.25;;;3.68;92.68
46464;BME280;32161;48.148;-1.554;2023-03-03T08:03:42;101787.69;;;3.79;92.60
46464;BME280;32161;48.148;-1.554;2023-03-03T08:06:44;101785.16;;;3.78;93.30
46464;BME280;32161;48.148;-1.554;2023-03-03T08:12:37;101786.22;;;3.85;93.89
46464;BME280;32161;48.148;-1.554;2023-03-03T08:15:30;101788.72;;;3.86;94.15
46464;BME280;32161;48.148;-1.554;2023-03-03T08:18:21;101798.88;;;3.92;94.41
46464;BME280;32161;48.148;-1.554;2023-03-03T08:20:52;101805.25;;;4.00;94.95
46464;BME280;32161;48.148;-1.554;2023-03-03T08:23:21;101808.53;;;4.11;94.88
46464;BME280;32161;48.148;-1.554;2023-03-03T08:25:50;101811.94;;;4.30;94.57
46464;BME280;32161;48.148;-1.554;2023-03-03T08:28:20;101809.47;;;4.45;94.47
46464;BME280;32161;48.148;-1.554;2023-03-03T08:30:49;101814.03;;;4.52;94.57
46464;BME280;32161;48.148;-1.554;2023-03-03T08:33:17;101810.53;;;4.60;94.91
46464;BME280;32161;48.148;-1.554;2023-03-03T08:35:46;101816.44;;;4.72;95.67
46464;BME280;32161;48.148;-1.554;2023-03-03T08:38:17;101813.94;;;4.78;94.29
46464;BME280;32161;48.148;-1.554;2023-03-03T08:40:46;101815.28;;;4.82;93.42
46464;BME280;32161;48.148;-1.554;2023-03-03T08:43:15;101811.63;;;5.08;92.01
46464;BME280;32161;48.148;-1.554;2023-03-03T08:45:50;101807.06;;;5.17;90.84
46464;BME280;32161;48.148;-1.554;2023-03-03T08:48:19;101813.09;;;5.10;90.73
46464;BME280;32161;48.148;-1.554;2023-03-03T08:50:47;101817.16;;;5.06;91.33
46464;BME280;32161;48.148;-1.554;2023-03-03T08:53:15;101817.84;;;5.08;92.08
46464;BME280;32161;48.148;-1.554;2023-03-03T08:55:43;101814.97;;;5.10;92.27
46464;BME280;32161;48.148;-1.554;2023-03-03T08:58:11;101827.94;;;5.14;92.11
46464;BME280;32161;48.148;-1.554;2023-03-03T09:00:38;101820.53;;;5.17;92.09
46464;BME280;32161;48.148;-1.554;2023-03-03T09:03:07;101828.59;;;5.41;90.85
46464;BME280;32161;48.148;-1.554;2023-03-03T09:05:37;101831.28;;;5.49;89.28
46464;BME280;32161;48.148;-1.554;2023-03-03T09:08:06;101827.25;;;5.45;90.13
46464;BME280;32161;48.148;-1.554;2023-03-03T09:10:34;101834.34;;;5.54;89.72
46464;BME280;32161;48.148;-1.554;2023-03-03T09:13:07;101828.25;;;5.77;88.66
46464;BME280;32161;48.148;-1.554;2023-03-03T09:15:38;101831.94;;;5.68;88.70
46464;BME280;32161;48.148;-1.554;2023-03-03T09:18:15;101838.66;;;5.80;88.77
46464;BME280;32161;48.148;-1.554;2023-03-03T09:20:45;101832.28;;;5.81;90.14
46464;BME280;32161;48.148;-1.554;2023-03-03T09:23:30;101838.16;;;5.84;90.23
46464;BME280;32161;48.148;-1.554;2023-03-03T09:26:22;101825.84;;;5.98;90.20
46464;BME280;32161;48.148;-1.554;2023-03-03T09:28:53;101833.41;;;6.03;90.16
46464;BME280;32161;48.148;-1.554;2023-03-03T09:31:26;101831.22;;;5.98;88.92
46464;BME280;32161;48.148;-1.554;2023-03-03T09:33:58;101847.09;;;6.01;88.22
46464;BME280;32161;48.148;-1.554;2023-03-03T09:36:29;101842.88;;;5.99;89.32
46464;BME280;32161;48.148;-1.554;2023-03-03T09:38:59;101843.34;;;6.10;90.80
46464;BME280;32161;48.148;-1.554;2023-03-03T09:45:34;101838.88;;;6.26;89.52
46464;BME280;32161;48.148;-1.554;2023-03-03T09:48:39;101843.88;;;6.45;89.75
46464;BME280;32161;48.148;-1.554;2023-03-03T09:51:29;101845.56;;;6.46;89.23
46464;BME280;32161;48.148;-1.554;2023-03-03T09:54:15;101843.81;;;6.62;86.58
46464;BME280;32161;48.148;-1.554;2023-03-03T09:56:55;101840.38;;;6.68;86.55
46464;BME280;32161;48.148;-1.554;2023-03-03T09:59:42;101844.94;;;6.67;87.16
46464;BME280;32161;48.148;-1.554;2023-03-03T10:02:28;101850.41;;;6.59;86.32
46464;BME280;32161;48.148;-1.554;2023-03-03T10:05:13;101848.13;;;6.71;85.92
46464;BME280;32161;48.148;-1.554;2023-03-03T10:07:57;101849.75;;;6.80;84.83
46464;BME280;32161;48.148;-1.554;2023-03-03T10:10:50;101853.22;;;6.97;84.01
46464;BME280;32161;48.148;-1.554;2023-03-03T10:13:35;101849.13;;;7.01;82.88
46464;BME280;32161;48.148;-1.554;2023-03-03T10:16:29;101848.47;;;6.99;83.79
46464;BME280;32161;48.148;-1.554;2023-03-03T10:19:02;101852.88;;;7.00;85.04
46464;BME280;32161;48.148;-1.554;2023-03-03T10:21:42;101861.97;;;6.99;84.01
46464;BME280;32161;48.148;-1.554;2023-03-03T10:24:26;101860.00;;;7.16;83.14
46464;BME280;32161;48.148;-1.554;2023-03-03T10:27:14;101869.31;;;7.13;84.04
46464;BME280;32161;48.148;-1.554;2023-03-03T10:29:57;101859.66;;;7.19;83.65
46464;BME280;32161;48.148;-1.554;2023-03-03T10:32:45;101857.25;;;7.24;82.62
46464;BME280;32161;48.148;-1.554;2023-03-03T10:35:41;101843.47;;;7.33;81.26
46464;BME280;32161;48.148;-1.554;2023-03-03T10:38:44;101845.13;;;7.57;81.59
46464;BME280;32161;48.148;-1.554;2023-03-03T10:44:30;101845.19;;;7.49;75.31
46464;BME280;32161;48.148;-1.554;2023-03-03T10:47:32;101853.50;;;7.25;77.99
46464;BME280;32161;48.148;-1.554;2023-03-03T10:50:15;101847.03;;;7.49;77.35
46464;BME280;32161;48.148;-1.554;2023-03-03T10:52:52;101844.78;;;7.38;77.59
46464;BME280;32161;48.148;-1.554;2023-03-03T10:55:40;101848.31;;;7.76;75.16
46464;BME280;32161;48.148;-1.554;2023-03-03T10:58:39;101838.25;;;7.70;76.68
46464;BME280;32161;48.148;-1.554;2023-03-03T11:01:20;101842.34;;;7.95;76.96
46464;BME280;32161;48.148;-1.554;2023-03-03T11:04:45;101854.31;;;8.01;77.00
46464;BME280;32161;48.148;-1.554;2023-03-03T11:07:20;101854.50;;;7.99;78.03
46464;BME280;32161;48.148;-1.554;2023-03-03T11:10:07;101847.88;;;8.02;78.12
46464;BME280;32161;48.148;-1.554;2023-03-03T11:12:49;101848.91;;;8.30;76.95
46464;BME280;32161;48.148;-1.554;2023-03-03T11:15:52;101858.91;;;8.45;76.03
46464;BME280;32161;48.148;-1.554;2023-03-03T11:18:36;101852.66;;;8.44;75.49
46464;BME280;32161;48.148;-1.554;2023-03-03T11:21:17;101851.72;;;8.37;74.79
46464;BME280;32161;48.148;-1.554;2023-03-03T11:24:11;101845.94;;;8.40;76.33
46464;BME280;32161;48.148;-1.554;2023-03-03T11:27:28;101846.31;;;8.37;75.18
46464;BME280;32161;48.148;-1.554;2023-03-03T11:30:27;101849.56;;;8.47;75.84
46464;BME280;32161;48.148;-1.554;2023-03-03T11:33:04;101844.97;;;8.63;75.35
46464;BME280;32161;48.148;-1.554;2023-03-03T11:35:43;101840.84;;;8.67;76.43
46464;BME280;32161;48.148;-1.554;2023-03-03T11:38:37;101844.84;;;8.71;74.00
46464;BME280;32161;48.148;-1.554;2023-03-03T11:41:16;101839.19;;;8.87;73.70
46464;BME280;32161;48.148;-1.554;2023-03-03T11:43:50;101841.75;;;8.95;73.22
46464;BME280;32161;48.148;-1.554;2023-03-03T11:46:24;101836.63;;;9.00;71.78
46464;BME280;32161;48.148;-1.554;2023-03-03T11:48:58;101837.13;;;9.11;70.82
46464;BME280;32161;48.148;-1.554;2023-03-03T11:51:40;101843.59;;;8.88;70.27
46464;BME280;32161;48.148;-1.554;2023-03-03T11:54:19;101838.03;;;8.96;71.36
46464;BME280;32161;48.148;-1.554;2023-03-03T11:56:49;101845.84;;;8.85;71.35
46464;BME280;32161;48.148;-1.554;2023-03-03T11:59:41;101846.75;;;9.35;69.00
46464;BME280;32161;48.148;-1.554;2023-03-03T12:02:39;101846.09;;;9.33;68.93
46464;BME280;32161;48.148;-1.554;2023-03-03T12:05:24;101837.03;;;9.19;70.75
46464;BME280;32161;48.148;-1.554;2023-03-03T12:08:00;101831.13;;;9.15;69.33
46464;BME280;32161;48.148;-1.554;2023-03-03T12:10:34;101825.97;;;9.48;68.37
46464;BME280;32161;48.148;-1.554;2023-03-03T12:13:10;101831.94;;;9.37;69.12
46464;BME280;32161;48.148;-1.554;2023-03-03T12:15:45;101825.16;;;9.76;66.74
46464;BME280;32161;48.148;-1.554;2023-03-03T12:18:40;101828.00;;;9.68;66.53
46464;BME280;32161;48.148;-1.554;2023-03-03T12:21:31;101825.13;;;9.69;66.53
46464;BME280;32161;48.148;-1.554;2023-03-03T12:24:29;101821.91;;;9.59;67.44
46464;BME280;32161;48.148;-1.554;2023-03-03T12:27:11;101823.63;;;9.67;66.99
46464;BME280;32161;48.148;-1.554;2023-03-03T12:29:44;101822.59;;;9.96;64.55
46464;BME280;32161;48.148;-1.554;2023-03-03T12:32:30;101804.69;;;9.73;67.48
46464;BME280;32161;48.148;-1.554;2023-03-03T12:35:05;101810.38;;;9.85;67.55
46464;BME280;32161;48.148;-1.554;2023-03-03T12:37:53;101813.00;;;9.72;66.44
46464;BME280;32161;48.148;-1.554;2023-03-03T12:40:27;101808.00;;;9.69;66.91
46464;BME280;32161;48.148;-1.554;2023-03-03T12:43:16;101799.69;;;10.12;63.53
46464;BME280;32161;48.148;-1.554;2023-03-03T12:45:55;101795.41;;;10.31;63.07
46464;BME280;32161;48.148;-1.554;2023-03-03T12:48:37;101795.75;;;10.21;61.58
46464;BME280;32161;48.148;-1.554;2023-03-03T12:51:20;101788.78;;;10.05;63.97
46464;BME280;32161;48.148;-1.554;2023-03-03T12:54:35;101786.09;;;10.18;62.46
46464;BME280;32161;48.148;-1.554;2023-03-03T12:57:18;101791.47;;;10.40;62.48
46464;BME280;32161;48.148;-1.554;2023-03-03T13:00:11;101790.81;;;10.31;61.74
46464;BME280;32161;48.148;-1.554;2023-03-03T13:02:55;101781.94;;;10.16;62.25
46464;BME280;32161;48.148;-1.554;2023-03-03T13:05:29;101776.03;;;10.06;64.06
46464;BME280;32161;48.148;-1.554;2023-03-03T13:08:25;101784.81;;;10.08;62.26
46464;BME280;32161;48.148;-1.554;2023-03-03T13:11:12;101776.50;;;10.16;63.05
46464;BME280;32161;48.148;-1.554;2023-03-03T13:13:51;101768.50;;;10.42;63.16
46464;BME280;32161;48.148;-1.554;2023-03-03T13:16:27;101777.53;;;10.63;60.73
46464;BME280;32161;48.148;-1.554;2023-03-03T13:19:00;101766.44;;;10.58;60.61
46464;BME280;32161;48.148;-1.554;2023-03-03T13:21:35;101767.88;;;10.47;62.92
46464;BME280;32161;48.148;-1.554;2023-03-03T13:24:16;101757.91;;;10.74;61.54
46464;BME280;32161;48.148;-1.554;2023-03-03T13:26:51;101746.97;;;10.54;63.28
46464;BME280;32161;48.148;-1.554;2023-03-03T13:29:25;101747.25;;;10.92;61.76
46464;BME280;32161;48.148;-1.554;2023-03-03T13:31:56;101743.44;;;10.67;63.22
46464;BME280;32161;48.148;-1.554;2023-03-03T13:34:38;101741.81;;;10.92;61.41
46464;BME280;32161;48.148;-1.554;2023-03-03T13:37:16;101745.34;;;10.80;62.74
46464;BME280;32161;48.148;-1.554;2023-03-03T13:39:56;101740.09;;;10.71;60.07
46464;BME280;32161;48.148;-1.554;2023-03-03T13:42:37;101734.47;;;10.86;61.60